sensor_id;sensor_type;location;lat;lon;timestamp;pressure;altitude;pressure_sealevel;temperature;humidity
58686;BME280;44465;53.206;-6.106;2022-07-12T00:00:55;101820.94;;;25.39;51.51
58686;BME280;44465;53.206;-6.106;2022-07-12T00:03:20;101828.97;;;25.41;51.50
58686;BME280;44465;53.206;-6.106;2022-07-12T00:05:46;101834.38;;;25.41;51.41
58686;BME280;44465;53.206;-6.106;2022-07-12T00:08:12;101836.09;;;25.42;51.19
58686;BME280;44465;53.206;-6.106;2022-07-12T00:10:37;101835.34;;;25.38;51.05
58686;BME280;44465;53.206;-6.106;2022-07-12T00:13:03;101842.38;;;25.43;51.22
58686;BME280;44465;53.206;-6.106;2022-07-12T00:15:29;101846.00;;;25.42;51.56
58686;BME280;44465;53.206;-6.106;2022-07-12T00:17:55;101846.00;;;25.42;51.49
58686;BME280;44465;53.206;-6.106;2022-07-12T00:20:21;101850.44;;;25.43;51.30
58686;BME280;44465;53.206;-6.106;2022-07-12T00:22:46;101842.50;;;25.39;51.58
58686;BME280;44465;53.206;-6.106;2022-07-12T00:25:12;101835.56;;;25.35;51.63
58686;BME280;44465;53.206;-6.106;2022-07-12T00:27:39;101840.94;;;25.35;51.47
58686;BME280;44465;53.206;-6.106;2022-07-12T00:30:06;101833.97;;;25.31;51.71
58686;BME280;44465;53.206;-6.106;2022-07-12T00:32:32;101832.25;;;25.30;51.50
58686;BME280;44465;53.206;-6.106;2022-07-12T00:34:58;101829.56;;;25.30;51.56
58686;BME280;44465;53.206;-6.106;2022-07-12T00:37:23;101829.28;;;25.35;51.49
58686;BME280;44465;53.206;-6.106;2022-07-12T00:39:49;101834.59;;;25.36;51.68
58686;BME280;44465;53.206;-6.106;2022-07-12T00:42:14;101832.88;;;25.35;51.51
58686;BME280;44465;53.206;-6.106;2022-07-12T00:44:40;101839.91;;;25.38;51.25
58686;BME280;44465;53.206;-6.106;2022-07-12T00:47:06;101843.44;;;25.38;51.32
58686;BME280;44465;53.206;-6.106;2022-07-12T00:49:31;101833.81;;;25.34;51.50
58686;BME280;44465;53.206;-6.106;2022-07-12T00:51:57;101831.72;;;25.39;51.45
58686;BME280;44465;53.206;-6.106;2022-07-12T00:54:23;101834.41;;;25.39;51.27
58686;BME280;44465;53.206;-6.106;2022-07-12T00:56:48;101840.75;;;25.38;51.56
58686;BME280;44465;53.206;-6.106;2022-07-12T00:59:14;101846.09;;;25.40;51.30
58686;BME280;44465;53.206;-6.106;2022-07-12T01:01:41;101845.16;;;25.41;51.58
58686;BME280;44465;53.206;-6.106;2022-07-12T01:04:07;101842.50;;;25.39;51.77
58686;BME280;44465;53.206;-6.106;2022-07-12T01:06:33;101846.16;;;25.38;51.59
58686;BME280;44465;53.206;-6.106;2022-07-12T01:08:59;101844.28;;;25.40;51.32
58686;BME280;44465;53.206;-6.106;2022-07-12T01:11:25;101847.03;;;25.39;51.53
58686;BME280;44465;53.206;-6.106;2022-07-12T01:13:54;101841.81;;;25.36;51.77
58686;BME280;44465;53.206;-6.106;2022-07-12T01:16:20;101847.31;;;25.34;51.45
58686;BME280;44465;53.206;-6.106;2022-07-12T01:18:46;101850.00;;;25.34;51.75
58686;BME280;44465;53.206;-6.106;2022-07-12T01:21:18;101848.25;;;25.33;51.85
58686;BME280;44465;53.206;-6.106;2022-07-12T01:23:46;101852.75;;;25.33;51.56
58686;BME280;44465;53.206;-6.106;2022-07-12T01:26:11;101850.16;;;25.31;51.90
58686;BME280;44465;53.206;-6.106;2022-07-12T01:28:37;101864.44;;;25.33;51.72
58686;BME280;44465;53.206;-6.106;2022-07-12T01:31:04;101859.81;;;25.35;51.35
58686;BME280;44465;53.206;-6.106;2022-07-12T01:33:30;101860.78;;;25.34;51.51
58686;BME280;44465;53.206;-6.106;2022-07-12T01:35:56;101857.13;;;25.35;51.87
58686;BME280;44465;53.206;-6.106;2022-07-12T01:38:22;101850.94;;;25.33;51.70
58686;BME280;44465;53.206;-6.106;2022-07-12T01:40:47;101852.69;;;25.34;51.92
58686;BME280;44465;53.206;-6.106;2022-07-12T01:43:13;101860.56;;;25.37;51.63
58686;BME280;44465;53.206;-6.106;2022-07-12T01:45:38;101856.06;;;25.38;51.61
58686;BME280;44465;53.206;-6.106;2022-07-12T01:48:05;101855.19;;;25.37;51.58
58686;BME280;44465;53.206;-6.106;2022-07-12T01:50:30;101850.69;;;25.38;51.59
58686;BME280;44465;53.206;-6.106;2022-07-12T01:52:56;101857.88;;;25.37;51.55
58686;BME280;44465;53.206;-6.106;2022-07-12T01:55:21;101853.38;;;25.38;51.53
58686;BME280;44465;53.206;-6.106;2022-07-12T01:57:49;101847.19;;;25.36;51.63
58686;BME280;44465;53.206;-6.106;2022-07-12T02:00:14;101840.94;;;25.35;51.55
58686;BME280;44465;53.206;-6.106;2022-07-12T02:02:40;101841.22;;;25.31;51.67
58686;BME280;44465;53.206;-6.106;2022-07-12T02:05:06;101867.13;;;25.33;51.88
58686;BME280;44465;53.206;-6.106;2022-07-12T02:07:32;101875.28;;;25.32;51.80
58686;BME280;44465;53.206;-6.106;2022-07-12T02:09:58;101894.16;;;25.32;52.03
58686;BME280;44465;53.206;-6.106;2022-07-12T02:12:24;101876.25;;;25.31;51.98
58686;BME280;44465;53.206;-6.106;2022-07-12T02:14:50;101871.13;;;25.26;51.78
58686;BME280;44465;53.206;-6.106;2022-07-12T02:17:16;101882.41;;;25.33;51.97
58686;BME280;44465;53.206;-6.106;2022-07-12T02:19:42;101871.63;;;25.33;51.69
58686;BME280;44465;53.206;-6.106;2022-07-12T02:22:08;101859.88;;;25.34;52.03
58686;BME280;44465;53.206;-6.106;2022-07-12T02:24:36;101871.72;;;25.31;51.92
58686;BME280;44465;53.206;-6.106;2022-07-12T02:27:01;101877.81;;;25.35;51.77
58686;BME280;44465;53.206;-6.106;2022-07-12T02:29:27;101881.41;;;25.35;51.68
58686;BME280;44465;53.206;-6.106;2022-07-12T02:31:53;101883.19;;;25.35;51.81
58686;BME280;44465;53.206;-6.106;2022-07-12T02:34:18;101869.13;;;25.30;51.87
58686;BME280;44465;53.206;-6.106;2022-07-12T02:36:43;101885.03;;;25.34;51.44
58686;BME280;44465;53.206;-6.106;2022-07-12T02:39:09;101884.94;;;25.36;51.41
58686;BME280;44465;53.206;-6.106;2022-07-12T02:41:36;101890.34;;;25.36;51.68
58686;BME280;44465;53.206;-6.106;2022-07-12T02:44:02;101880.59;;;25.33;51.59
58686;BME280;44465;53.206;-6.106;2022-07-12T02:46:27;101886.84;;;25.34;51.87
58686;BME280;44465;53.206;-6.106;2022-07-12T02:48:53;101882.50;;;25.31;51.76
58686;BME280;44465;53.206;-6.106;2022-07-12T02:51:18;101880.78;;;25.30;51.84
58686;BME280;44465;53.206;-6.106;2022-07-12T02:53:44;101889.81;;;25.29;52.02
58686;BME280;44465;53.206;-6.106;2022-07-12T02:56:09;101883.72;;;25.25;52.00
58686;BME280;44465;53.206;-6.106;2022-07-12T02:58:35;101863.38;;;25.20;52.03
58686;BME280;44465;53.206;-6.106;2022-07-12T03:01:02;101871.03;;;25.28;51.98
58686;BME280;44465;53.206;-6.106;2022-07-12T03:03:27;101882.63;;;25.30;51.79
58686;BME280;44465;53.206;-6.106;2022-07-12T03:05:53;101891.56;;;25.30;51.95
58686;BME280;44465;53.206;-6.106;2022-07-12T03:08:20;101890.50;;;25.33;52.03
58686;BME280;44465;53.206;-6.106;2022-07-12T03:10:45;101869.97;;;25.30;51.75
58686;BME280;44465;53.206;-6.106;2022-07-12T03:13:11;101868.25;;;25.29;51.79
58686;BME280;44465;53.206;-6.106;2022-07-12T03:15:36;101885.31;;;25.30;51.85
58686;BME280;44465;53.206;-6.106;2022-07-12T03:18:02;101903.13;;;25.32;51.75
58686;BME280;44465;53.206;-6.106;2022-07-12T03:20:29;101906.63;;;25.34;51.77
58686;BME280;44465;53.206;-6.106;2022-07-12T03:22:54;101912.97;;;25.33;52.07
58686;BME280;44465;53.206;-6.106;2022-07-12T03:25:21;101919.22;;;25.34;51.77
58686;BME280;44465;53.206;-6.106;2022-07-12T03:27:46;101929.13;;;25.33;51.70
58686;BME280;44465;53.206;-6.106;2022-07-12T03:30:13;101927.41;;;25.32;51.83
58686;BME280;44465;53.206;-6.106;2022-07-12T03:32:39;101938.34;;;25.29;52.24
58686;BME280;44465;53.206;-6.106;2022-07-12T03:35:05;101933.13;;;25.26;52.11
58686;BME280;44465;53.206;-6.106;2022-07-12T03:37:45;101938.53;;;25.26;52.17
58686;BME280;44465;53.206;-6.106;2022-07-12T03:40:12;101941.22;;;25.26;52.31
58686;BME280;44465;53.206;-6.106;2022-07-12T03:42:38;101929.66;;;25.24;52.10
58686;BME280;44465;53.206;-6.106;2022-07-12T03:45:05;101936.84;;;25.23;52.16
58686;BME280;44465;53.206;-6.106;2022-07-12T03:47:31;101918.44;;;25.16;52.38
58686;BME280;44465;53.206;-6.106;2022-07-12T03:50:07;101930.50;;;25.24;52.35
58686;BME280;44465;53.206;-6.106;2022-07-12T03:52:33;101916.44;;;25.19;52.13
58686;BME280;44465;53.206;-6.106;2022-07-12T03:54:59;101916.06;;;25.25;51.95
58686;BME280;44465;53.206;-6.106;2022-07-12T03:57:24;101916.88;;;25.28;51.97
58686;BME280;44465;53.206;-6.106;2022-07-12T03:59:51;101921.38;;;25.27;52.40
58686;BME280;44465;53.206;-6.106;2022-07-12T04:02:17;101915.03;;;25.28;52.17
58686;BME280;44465;53.206;-6.106;2022-07-12T04:04:42;101915.22;;;25.25;51.94
58686;BME280;44465;53.206;-6.106;2022-07-12T04:07:08;101916.78;;;25.29;51.80
58686;BME280;44465;53.206;-6.106;2022-07-12T04:09:33;101902.50;;;25.27;51.97
58686;BME280;44465;53.206;-6.106;2022-07-12T04:11:59;101885.47;;;25.27;52.14
58686;BME280;44465;53.206;-6.106;2022-07-12T04:14:24;101888.84;;;25.30;52.23
58686;BME280;44465;53.206;-6.106;2022-07-12T04:16:50;101893.47;;;25.28;52.41
58686;BME280;44465;53.206;-6.106;2022-07-12T04:19:15;101897.09;;;25.27;52.08
58686;BME280;44465;53.206;-6.106;2022-07-12T04:21:41;101902.69;;;25.24;52.10
58686;BME280;44465;53.206;-6.106;2022-07-12T04:24:06;101899.13;;;25.23;52.02
58686;BME280;44465;53.206;-6.106;2022-07-12T04:26:32;101896.50;;;25.22;52.33
58686;BME280;44465;53.206;-6.106;2022-07-12T04:28:58;101900.94;;;25.23;52.49
58686;BME280;44465;53.206;-6.106;2022-07-12T04:31:24;101898.31;;;25.21;52.32
58686;BME280;44465;53.206;-6.106;2022-07-12T04:33:50;101885.63;;;25.23;52.08
58686;BME280;44465;53.206;-6.106;2022-07-12T04:36:15;101873.84;;;25.26;52.25
58686;BME280;44465;53.206;-6.106;2022-07-12T04:38:41;101871.13;;;25.26;52.23
58686;BME280;44465;53.206;-6.106;2022-07-12T04:41:06;101857.66;;;25.26;52.31
58686;BME280;44465;53.206;-6.106;2022-07-12T04:43:32;101847.72;;;25.27;52.12
58686;BME280;44465;53.206;-6.106;2022-07-12T04:46:05;101838.94;;;25.23;52.49
58686;BME280;44465;53.206;-6.106;2022-07-12T04:48:31;101842.25;;;25.28;52.33
58686;BME280;44465;53.206;-6.106;2022-07-12T04:50:57;101844.94;;;25.28;52.33
58686;BME280;44465;53.206;-6.106;2022-07-12T04:53:22;101842.44;;;25.25;52.08
58686;BME280;44465;53.206;-6.106;2022-07-12T04:55:47;101843.19;;;25.27;52.07
58686;BME280;44465;53.206;-6.106;2022-07-12T04:58:13;101839.53;;;25.28;52.13
58686;BME280;44465;53.206;-6.106;2022-07-12T05:00:38;101839.13;;;25.20;52.18
58686;BME280;44465;53.206;-6.106;2022-07-12T05:03:04;101863.22;;;25.23;52.43
58686;BME280;44465;53.206;-6.106;2022-07-12T05:05:29;101868.59;;;25.23;52.67
58686;BME280;44465;53.206;-6.106;2022-07-12T05:07:55;101879.38;;;25.23;52.48
58686;BME280;44465;53.206;-6.106;2022-07-12T05:10:20;101884.94;;;25.20;52.33
58686;BME280;44465;53.206;-6.106;2022-07-12T05:12:46;101885.81;;;25.20;52.60
58686;BME280;44465;53.206;-6.106;2022-07-12T05:15:11;101885.91;;;25.19;52.83
58686;BME280;44465;53.206;-6.106;2022-07-12T05:17:37;101881.47;;;25.18;52.67
58686;BME280;44465;53.206;-6.106;2022-07-12T05:20:03;101888.44;;;25.22;52.58
58686;BME280;44465;53.206;-6.106;2022-07-12T05:22:28;101897.31;;;25.24;52.51
58686;BME280;44465;53.206;-6.106;2022-07-12T05:24:54;101902.69;;;25.24;52.84
58686;BME280;44465;53.206;-6.106;2022-07-12T05:27:19;101886.69;;;25.21;52.52
58686;BME280;44465;53.206;-6.106;2022-07-12T05:29:44;101890.97;;;25.25;52.64
58686;BME280;44465;53.206;-6.106;2022-07-12T05:32:10;101887.38;;;25.24;52.48
58686;BME280;44465;53.206;-6.106;2022-07-12T05:34:37;101879.38;;;25.23;52.58
58686;BME280;44465;53.206;-6.106;2022-07-12T05:37:03;101869.56;;;25.22;52.73
58686;BME280;44465;53.206;-6.106;2022-07-12T05:39:29;101874.84;;;25.23;52.68
58686;BME280;44465;53.206;-6.106;2022-07-12T05:41:55;101887.31;;;25.26;52.68
58686;BME280;44465;53.206;-6.106;2022-07-12T05:44:21;101880.25;;;25.23;52.61
58686;BME280;44465;53.206;-6.106;2022-07-12T05:46:48;101883.88;;;25.22;52.65
58686;BME280;44465;53.206;-6.106;2022-07-12T05:49:13;101878.84;;;25.16;52.63
58686;BME280;44465;53.206;-6.106;2022-07-12T05:51:38;101892.19;;;25.19;52.99
58686;BME280;44465;53.206;-6.106;2022-07-12T05:54:23;101895.88;;;25.17;52.55
58686;BME280;44465;53.206;-6.106;2022-07-12T05:56:48;101901.22;;;25.18;52.96
58686;BME280;44465;53.206;-6.106;2022-07-12T05:59:17;101903.97;;;25.17;52.77
58686;BME280;44465;53.206;-6.106;2022-07-12T06:01:42;101912.06;;;25.17;52.61
58686;BME280;44465;53.206;-6.106;2022-07-12T06:04:08;101924.41;;;25.21;52.74
58686;BME280;44465;53.206;-6.106;2022-07-12T06:06:33;101915.38;;;25.22;52.66
58686;BME280;44465;53.206;-6.106;2022-07-12T06:08:59;101932.50;;;25.21;52.88
58686;BME280;44465;53.206;-6.106;2022-07-12T06:11:24;101923.47;;;25.22;52.76
58686;BME280;44465;53.206;-6.106;2022-07-12T06:13:50;101926.41;;;25.17;52.71
58686;BME280;44465;53.206;-6.106;2022-07-12T06:16:16;101923.03;;;25.14;52.81
58686;BME280;44465;53.206;-6.106;2022-07-12T06:18:41;101935.09;;;25.22;52.75
58686;BME280;44465;53.206;-6.106;2022-07-12T06:21:07;101933.31;;;25.23;52.70
58686;BME280;44465;53.206;-6.106;2022-07-12T06:23:33;101938.69;;;25.23;52.59
58686;BME280;44465;53.206;-6.106;2022-07-12T06:25:59;101937.81;;;25.22;52.67
58686;BME280;44465;53.206;-6.106;2022-07-12T06:28:24;101946.69;;;25.24;52.74
58686;BME280;44465;53.206;-6.106;2022-07-12T06:30:49;101946.84;;;25.21;53.06
58686;BME280;44465;53.206;-6.106;2022-07-12T06:33:15;101939.00;;;25.17;52.74
58686;BME280;44465;53.206;-6.106;2022-07-12T06:35:41;101937.09;;;25.19;53.26
58686;BME280;44465;53.206;-6.106;2022-07-12T06:38:06;101950.59;;;25.19;52.94
58686;BME280;44465;53.206;-6.106;2022-07-12T06:40:32;101945.19;;;25.19;53.05
58686;BME280;44465;53.206;-6.106;2022-07-12T06:42:57;101943.72;;;25.13;52.96
58686;BME280;44465;53.206;-6.106;2022-07-12T06:45:23;101945.38;;;25.16;53.23
58686;BME280;44465;53.206;-6.106;2022-07-12T06:47:50;101949.78;;;25.17;53.23
58686;BME280;44465;53.206;-6.106;2022-07-12T06:50:15;101935.47;;;25.16;53.40
58686;BME280;44465;53.206;-6.106;2022-07-12T06:52:40;101929.97;;;25.18;53.30
58686;BME280;44465;53.206;-6.106;2022-07-12T06:55:07;101942.50;;;25.19;53.14
58686;BME280;44465;53.206;-6.106;2022-07-12T06:57:32;101946.94;;;25.20;53.22
58686;BME280;44465;53.206;-6.106;2022-07-12T06:59:59;101945.13;;;25.20;53.07
58686;BME280;44465;53.206;-6.106;2022-07-12T07:02:25;101932.66;;;25.18;52.81
58686;BME280;44465;53.206;-6.106;2022-07-12T07:04:50;101930.75;;;25.20;53.13
58686;BME280;44465;53.206;-6.106;2022-07-12T07:07:16;101935.22;;;25.21;52.95
58686;BME280;44465;53.206;-6.106;2022-07-12T07:09:42;101943.28;;;25.21;52.81
58686;BME280;44465;53.206;-6.106;2022-07-12T07:12:08;101938.75;;;25.21;52.85
58686;BME280;44465;53.206;-6.106;2022-07-12T07:14:34;101924.78;;;25.15;53.05
58686;BME280;44465;53.206;-6.106;2022-07-12T07:16:59;101930.16;;;25.15;53.27
58686;BME280;44465;53.206;-6.106;2022-07-12T07:19:25;101923.03;;;25.14;53.21
58686;BME280;44465;53.206;-6.106;2022-07-12T07:21:52;101924.78;;;25.15;53.25
58686;BME280;44465;53.206;-6.106;2022-07-12T07:24:19;101925.25;;;25.05;53.09
58686;BME280;44465;53.206;-6.106;2022-07-12T07:26:44;101919.72;;;25.08;53.33
58686;BME280;44465;53.206;-6.106;2022-07-12T07:29:10;101915.97;;;25.11;53.06
58686;BME280;44465;53.206;-6.106;2022-07-12T07:31:54;101919.53;;;25.12;52.91
58686;BME280;44465;53.206;-6.106;2022-07-12T07:34:19;101914.00;;;25.15;52.95
58686;BME280;44465;53.206;-6.106;2022-07-12T07:36:45;101924.78;;;25.15;53.36
58686;BME280;44465;53.206;-6.106;2022-07-12T07:39:10;101937.31;;;25.16;53.07
58686;BME280;44465;53.206;-6.106;2022-07-12T07:41:37;101940.00;;;25.16;53.22
58686;BME280;44465;53.206;-6.106;2022-07-12T07:44:03;101932.66;;;25.18;53.02
58686;BME280;44465;53.206;-6.106;2022-07-12T07:46:28;101931.91;;;25.16;53.27
58686;BME280;44465;53.206;-6.106;2022-07-12T07:48:54;101917.63;;;25.14;53.60
58686;BME280;44465;53.206;-6.106;2022-07-12T07:51:19;101914.94;;;25.14;53.37
58686;BME280;44465;53.206;-6.106;2022-07-12T07:53:45;101915.00;;;25.12;53.51
58686;BME280;44465;53.206;-6.106;2022-07-12T07:56:10;101915.09;;;25.11;53.32
58686;BME280;44465;53.206;-6.106;2022-07-12T07:58:36;101910.81;;;25.06;53.40
58686;BME280;44465;53.206;-6.106;2022-07-12T08:01:01;101920.41;;;25.12;53.21
58686;BME280;44465;53.206;-6.106;2022-07-12T08:03:27;101926.69;;;25.13;53.11
58686;BME280;44465;53.206;-6.106;2022-07-12T08:05:52;101921.28;;;25.13;53.24
58686;BME280;44465;53.206;-6.106;2022-07-12T08:08:18;101908.31;;;25.03;53.18
58686;BME280;44465;53.206;-6.106;2022-07-12T08:10:44;101919.09;;;25.03;53.44
58686;BME280;44465;53.206;-6.106;2022-07-12T08:13:09;101923.19;;;25.11;53.11
58686;BME280;44465;53.206;-6.106;2022-07-12T08:15:35;101912.75;;;25.04;53.41
58686;BME280;44465;53.206;-6.106;2022-07-12T08:18:00;101914.16;;;25.12;53.16
58686;BME280;44465;53.206;-6.106;2022-07-12T08:20:26;101907.88;;;25.11;52.95
58686;BME280;44465;53.206;-6.106;2022-07-12T08:22:51;101914.16;;;25.12;53.18
58686;BME280;44465;53.206;-6.106;2022-07-12T08:25:17;101898.94;;;25.11;52.99
58686;BME280;44465;53.206;-6.106;2022-07-12T08:27:42;101906.06;;;25.12;53.23
58686;BME280;44465;53.206;-6.106;2022-07-12T08:30:09;101907.81;;;25.13;53.31
58686;BME280;44465;53.206;-6.106;2022-07-12T08:32:35;101914.66;;;25.02;53.33
58686;BME280;44465;53.206;-6.106;2022-07-12T08:35:01;101913.63;;;25.05;53.27
58686;BME280;44465;53.206;-6.106;2022-07-12T08:37:26;101931.19;;;25.12;53.16
58686;BME280;44465;53.206;-6.106;2022-07-12T08:39:52;101924.94;;;25.12;53.23
58686;BME280;44465;53.206;-6.106;2022-07-12T08:42:18;101933.13;;;25.10;53.14
58686;BME280;44465;53.206;-6.106;2022-07-12T08:44:56;101947.53;;;25.09;53.07
58686;BME280;44465;53.206;-6.106;2022-07-12T08:47:22;101944.91;;;25.07;53.14
58686;BME280;44465;53.206;-6.106;2022-07-12T08:52:41;101957.53;;;25.07;53.56
58686;BME280;44465;53.206;-6.106;2022-07-12T08:55:23;101945.00;;;25.06;53.00
58686;BME280;44465;53.206;-6.106;2022-07-12T08:57:51;101955.53;;;25.11;52.98
58686;BME280;44465;53.206;-6.106;2022-07-12T09:00:17;101956.38;;;25.11;53.29
58686;BME280;44465;53.206;-6.106;2022-07-12T09:03:03;101947.44;;;25.11;53.09
58686;BME280;44465;53.206;-6.106;2022-07-12T09:05:30;101949.28;;;25.10;53.39
58686;BME280;44465;53.206;-6.106;2022-07-12T09:08:04;101939.38;;;25.11;53.08
58686;BME280;44465;53.206;-6.106;2022-07-12T09:10:31;101933.97;;;25.11;53.11
58686;BME280;44465;53.206;-6.106;2022-07-12T09:12:57;101922.25;;;25.12;52.93
58686;BME280;44465;53.206;-6.106;2022-07-12T09:15:23;101927.78;;;25.08;53.16
58686;BME280;44465;53.206;-6.106;2022-07-12T09:18:04;101936.56;;;25.12;53.10
58686;BME280;44465;53.206;-6.106;2022-07-12T09:20:38;101927.00;;;25.06;52.96
58686;BME280;44465;53.206;-6.106;2022-07-12T09:23:08;101906.03;;;24.96;53.22
58686;BME280;44465;53.206;-6.106;2022-07-12T09:25:35;101917.38;;;25.02;53.05
58686;BME280;44465;53.206;-6.106;2022-07-12T09:28:06;101920.06;;;25.02;53.06
58686;BME280;44465;53.206;-6.106;2022-07-12T09:30:33;101943.81;;;25.12;53.05
58686;BME280;44465;53.206;-6.106;2022-07-12T09:35:58;101940.91;;;24.99;53.02
58686;BME280;44465;53.206;-6.106;2022-07-12T09:38:58;101958.38;;;25.07;52.91
58686;BME280;44465;53.206;-6.106;2022-07-12T09:41:27;101966.31;;;25.11;52.89
58686;BME280;44465;53.206;-6.106;2022-07-12T09:43:53;101958.31;;;25.09;53.03
58686;BME280;44465;53.206;-6.106;2022-07-12T09:46:19;101951.88;;;25.12;53.29
58686;BME280;44465;53.206;-6.106;2022-07-12T09:48:46;101957.13;;;25.15;53.38
58686;BME280;44465;53.206;-6.106;2022-07-12T09:51:16;101958.06;;;25.14;53.18
58686;BME280;44465;53.206;-6.106;2022-07-12T09:53:49;101937.97;;;25.03;52.97
58686;BME280;44465;53.206;-6.106;2022-07-12T09:56:16;101953.00;;;25.07;53.14
58686;BME280;44465;53.206;-6.106;2022-07-12T09:58:52;101962.50;;;25.15;53.18
58686;BME280;44465;53.206;-6.106;2022-07-12T10:01:18;101972.41;;;25.14;52.97
58686;BME280;44465;53.206;-6.106;2022-07-12T10:03:45;101967.09;;;25.13;53.24
58686;BME280;44465;53.206;-6.106;2022-07-12T10:06:16;101959.69;;;25.00;53.06
58686;BME280;44465;53.206;-6.106;2022-07-12T10:08:46;101954.13;;;25.03;52.88
58686;BME280;44465;53.206;-6.106;2022-07-12T10:11:12;101969.97;;;25.09;52.89
58686;BME280;44465;53.206;-6.106;2022-07-12T10:13:38;101965.22;;;25.15;52.83
58686;BME280;44465;53.206;-6.106;2022-07-12T10:16:05;101964.56;;;25.09;52.99
58686;BME280;44465;53.206;-6.106;2022-07-12T10:18:31;101971.53;;;25.14;52.81
58686;BME280;44465;53.206;-6.106;2022-07-12T10:20:57;101959.03;;;25.13;53.06
58686;BME280;44465;53.206;-6.106;2022-07-12T10:23:33;101968.06;;;25.12;53.16
58686;BME280;44465;53.206;-6.106;2022-07-12T10:28:55;101972.50;;;25.13;52.92
58686;BME280;44465;53.206;-6.106;2022-07-12T10:31:27;101947.78;;;25.04;53.09
58686;BME280;44465;53.206;-6.106;2022-07-12T10:34:21;101968.75;;;25.15;53.16
58686;BME280;44465;53.206;-6.106;2022-07-12T10:39:26;101958.94;;;25.14;53.14
58686;BME280;44465;53.206;-6.106;2022-07-12T10:42:12;101931.00;;;24.99;53.22
58686;BME280;44465;53.206;-6.106;2022-07-12T10:44:41;101965.81;;;25.20;53.28
58686;BME280;44465;53.206;-6.106;2022-07-12T10:47:10;101940.81;;;25.00;53.09
58686;BME280;44465;53.206;-6.106;2022-07-12T10:49:43;101966.59;;;25.22;52.80
58686;BME280;44465;53.206;-6.106;2022-07-12T10:54:41;101959.38;;;25.22;53.03
58686;BME280;44465;53.206;-6.106;2022-07-12T10:57:08;101961.13;;;25.23;53.23
58686;BME280;44465;53.206;-6.106;2022-07-12T10:59:35;101964.06;;;25.19;52.99
58686;BME280;44465;53.206;-6.106;2022-07-12T11:02:01;101973.81;;;25.21;53.10
58686;BME280;44465;53.206;-6.106;2022-07-12T11:04:27;101958.22;;;25.11;52.93
58686;BME280;44465;53.206;-6.106;2022-07-12T11:06:53;101972.94;;;25.21;52.72
58686;BME280;44465;53.206;-6.106;2022-07-12T11:09:24;101932.91;;;24.97;52.61
58686;BME280;44465;53.206;-6.106;2022-07-12T11:11:51;101974.69;;;25.22;52.68
58686;BME280;44465;53.206;-6.106;2022-07-12T11:14:35;101967.72;;;25.18;52.61
58686;BME280;44465;53.206;-6.106;2022-07-12T11:17:01;101969.41;;;25.20;52.86
58686;BME280;44465;53.206;-6.106;2022-07-12T11:19:29;101971.84;;;25.25;53.05
58686;BME280;44465;53.206;-6.106;2022-07-12T11:21:55;101977.97;;;25.27;53.21
58686;BME280;44465;53.206;-6.106;2022-07-12T11:24:29;101973.09;;;25.18;53.03
58686;BME280;44465;53.206;-6.106;2022-07-12T11:26:55;101969.28;;;25.22;53.12
58686;BME280;44465;53.206;-6.106;2022-07-12T11:29:20;101924.75;;;24.99;52.86
58686;BME280;44465;53.206;-6.106;2022-07-12T11:31:47;101971.63;;;25.28;52.82
58686;BME280;44465;53.206;-6.106;2022-07-12T11:34:23;101928.19;;;25.01;53.19
58686;BME280;44465;53.206;-6.106;2022-07-12T11:36:59;101957.56;;;25.23;53.11
58686;BME280;44465;53.206;-6.106;2022-07-12T11:39:40;101958.00;;;25.31;53.00
58686;BME280;44465;53.206;-6.106;2022-07-12T11:42:07;101945.03;;;25.22;52.88
58686;BME280;44465;53.206;-6.106;2022-07-12T11:44:52;101937.31;;;25.16;52.85
58686;BME280;44465;53.206;-6.106;2022-07-12T11:47:21;101930.66;;;25.05;53.02
58686;BME280;44465;53.206;-6.106;2022-07-12T11:49:48;101965.28;;;25.29;53.03
58686;BME280;44465;53.206;-6.106;2022-07-12T11:52:16;101946.16;;;25.18;53.01
58686;BME280;44465;53.206;-6.106;2022-07-12T11:54:47;101956.25;;;25.30;52.81
58686;BME280;44465;53.206;-6.106;2022-07-12T11:57:13;101949.63;;;25.20;52.67
58686;BME280;44465;53.206;-6.106;2022-07-12T11:59:40;101939.00;;;25.17;52.83
58686;BME280;44465;53.206;-6.106;2022-07-12T12:02:07;101955.31;;;25.31;52.93
58686;BME280;44465;53.206;-6.106;2022-07-12T12:04:47;101924.94;;;25.12;52.66
58686;BME280;44465;53.206;-6.106;2022-07-12T12:07:14;101962.09;;;25.38;52.89
58686;BME280;44465;53.206;-6.106;2022-07-12T12:10:06;101959.38;;;25.38;52.99
58686;BME280;44465;53.206;-6.106;2022-07-12T12:12:41;101965.72;;;25.37;53.01
58686;BME280;44465;53.206;-6.106;2022-07-12T12:15:09;101957.84;;;25.34;52.73
58686;BME280;44465;53.206;-6.106;2022-07-12T12:17:36;101955.22;;;25.33;52.87
58686;BME280;44465;53.206;-6.106;2022-07-12T12:20:10;101963.13;;;25.36;52.90
58686;BME280;44465;53.206;-6.106;2022-07-12T12:22:37;101969.22;;;25.39;52.75
58686;BME280;44465;53.206;-6.106;2022-07-12T12:25:04;101956.09;;;25.33;52.97
58686;BME280;44465;53.206;-6.106;2022-07-12T12:27:30;101982.41;;;25.46;53.10
58686;BME280;44465;53.206;-6.106;2022-07-12T12:30:07;101928.44;;;25.14;52.72
58686;BME280;44465;53.206;-6.106;2022-07-12T12:32:45;101977.19;;;25.43;52.88
58686;BME280;44465;53.206;-6.106;2022-07-12T12:35:12;101970.91;;;25.42;52.82
58686;BME280;44465;53.206;-6.106;2022-07-12T12:37:38;101944.94;;;25.23;52.72
58686;BME280;44465;53.206;-6.106;2022-07-12T12:40:04;101956.88;;;25.35;52.85
58686;BME280;44465;53.206;-6.106;2022-07-12T12:42:30;101931.72;;;25.19;52.64
58686;BME280;44465;53.206;-6.106;2022-07-12T12:44:55;101950.69;;;25.33;53.12
58686;BME280;44465;53.206;-6.106;2022-07-12T12:47:21;101971.78;;;25.43;53.06
58686;BME280;44465;53.206;-6.106;2022-07-12T12:49:56;101968.19;;;25.42;53.17
58686;BME280;44465;53.206;-6.106;2022-07-12T12:52:23;101945.88;;;25.40;53.12
58686;BME280;44465;53.206;-6.106;2022-07-12T12:54:49;101943.09;;;25.42;52.67